Time;durP1;ratioP1;P1;durP2;ratioP2;P2;SDS_P1;SDS_P2;PMS_P1;PMS_P2;Temp;Humidity;BMP_temperature;BMP_pressure;BME280_temperature;BME280_humidity;BME280_pressure;Samples;Min_cycle;Max_cycle;Signal;HPM_P1;HPM_P2
2023/12/04 00:02:26;;;;;;;18.75;7.97;;;;;;;0.32;100.00;101321.38;6100941;23;20019;-75
2023/12/04 00:04:52;;;;;;;17.42;8.43;;;;;;;0.34;100.00;101332.25;6076155;23;20484;-75
2023/12/04 00:07:19;;;;;;;14.10;8.48;;;;;;;0.37;100.00;101322.94;6101476;23;20070;-75
2023/12/04 00:09:45;;;;;;;11.23;7.55;;;;;;;0.37;100.00;101325.56;6101742;23;20469;-75
2023/12/04 00:12:12;;;;;;;14.20;8.18;;;;;;;0.38;100.00;101325.19;6101535;23;20063;-75
2023/12/04 00:14:39;;;;;;;11.90;7.57;;;;;;;0.37;100.00;101315.06;6101539;23;20019;-75
2023/12/04 00:17:05;;;;;;;10.98;7.03;;;;;;;0.36;100.00;101316.19;6101819;23;20483;-75
2023/12/04 00:19:32;;;;;;;17.45;8.45;;;;;;;0.35;100.00;101310.19;6101332;23;20055;-75
2023/12/04 00:21:58;;;;;;;14.13;9.02;;;;;;;0.35;100.00;101304.94;6101828;23;20157;-75
2023/12/04 00:24:25;;;;;;;17.25;8.27;;;;;;;0.34;100.00;101300.81;6100802;23;20098;-75
2023/12/04 00:26:51;;;;;;;14.90;8.55;;;;;;;0.35;100.00;101299.72;6102121;23;20019;-75
2023/12/04 00:29:18;;;;;;;18.13;8.98;;;;;;;0.35;100.00;101299.72;6101669;23;20026;-76
2023/12/04 00:31:44;;;;;;;15.38;8.50;;;;;;;0.35;100.00;101298.97;6101542;23;20019;-76
2023/12/04 00:34:12;;;;;;;14.55;8.30;;;;;;;0.34;100.00;101292.97;6101366;23;20046;-76
2023/12/04 00:36:38;;;;;;;12.75;7.30;;;;;;;0.35;100.00;101288.47;6102021;23;20090;-76
2023/12/04 00:39:05;;;;;;;15.98;8.48;;;;;;;0.34;100.00;101285.09;6102107;23;20075;-76
2023/12/04 00:41:31;;;;;;;18.67;8.55;;;;;;;0.36;100.00;101284.75;6100989;23;20810;-76
2023/12/04 00:43:58;;;;;;;15.77;8.73;;;;;;;0.35;100.00;101281.38;6102202;23;20027;-76
2023/12/04 00:46:25;;;;;;;14.70;8.00;;;;;;;0.38;100.00;101282.53;6100939;23;20844;-76
2023/12/04 00:48:52;;;;;;;16.15;8.50;;;;;;;0.37;100.00;101289.63;6101551;23;20039;-76
2023/12/04 00:51:19;;;;;;;16.02;9.27;;;;;;;0.37;100.00;101275.78;6075720;23;20097;-76
2023/12/04 00:53:46;;;;;;;14.75;8.65;;;;;;;0.40;100.00;101275.06;6101488;23;20078;-75
2023/12/04 00:56:12;;;;;;;22.10;9.80;;;;;;;0.41;100.00;101269.44;6101717;23;20417;-76
2023/12/04 00:58:39;;;;;;;17.02;9.38;;;;;;;0.42;100.00;101273.59;6101668;23;20453;-75
2023/12/04 01:01:06;;;;;;;17.65;9.25;;;;;;;0.42;100.00;101267.59;6101732;23;20019;-73
2023/12/04 01:03:33;;;;;;;26.00;9.80;;;;;;;0.42;100.00;101270.97;6100982;23;20079;-74
2023/12/04 01:06:00;;;;;;;21.85;9.90;;;;;;;0.40;100.00;101270.56;6076172;23;20027;-74
2023/12/04 01:08:26;;;;;;;19.08;9.63;;;;;;;0.41;100.00;101266.84;6100964;23;20011;-74
2023/12/04 01:10:53;;;;;;;18.15;9.68;;;;;;;0.40;100.00;101262.69;6101839;23;20018;-74
2023/12/04 01:13:19;;;;;;;19.10;8.68;;;;;;;0.42;100.00;101263.09;6101338;23;20045;-75
2023/12/04 01:15:48;;;;;;;16.25;9.63;;;;;;;0.44;100.00;101260.13;6101543;23;20022;-74
2023/12/04 01:18:15;;;;;;;19.38;10.93;;;;;;;0.45;100.00;101257.16;6100849;23;20082;-73
2023/12/04 01:20:41;;;;;;;18.55;9.68;;;;;;;0.47;100.00;101254.94;6101520;23;20019;-73
2023/12/04 01:23:08;;;;;;;18.30;9.93;;;;;;;0.47;100.00;101257.53;6101537;23;20030;-74
2023/12/04 01:25:34;;;;;;;17.38;8.73;;;;;;;0.46;100.00;101252.66;6075229;23;20019;-74
2023/12/04 01:28:01;;;;;;;18.13;10.43;;;;;;;0.49;100.00;101247.47;6101730;23;20090;-74
2023/12/04 01:30:27;;;;;;;17.77;9.85;;;;;;;0.50;100.00;101240.38;6101001;23;20086;-74
2023/12/04 01:32:54;;;;;;;22.15;9.70;;;;;;;0.48;100.00;101240.72;6101239;23;20437;-74
2023/12/04 01:35:20;;;;;;;21.10;9.95;;;;;;;0.49;100.00;101237.00;6100849;23;20019;-75
2023/12/04 01:37:47;;;;;;;18.52;9.20;;;;;;;0.49;100.00;101236.25;6101263;23;20066;-76
2023/12/04 01:40:14;;;;;;;16.60;9.73;;;;;;;0.48;100.00;101232.88;6101080;23;20026;-76
2023/12/04 01:42:42;;;;;;;14.93;8.75;;;;;;;0.46;100.00;101227.22;6100508;23;20056;-75
2023/12/04 01:45:09;;;;;;;16.13;9.48;;;;;;;0.46;100.00;101226.47;6101638;23;20014;-75
2023/12/04 01:47:36;;;;;;;20.42;9.60;;;;;;;0.45;100.00;101230.97;6100741;23;20090;-76
2023/12/04 01:50:04;;;;;;;21.40;9.35;;;;;;;0.45;100.00;101227.59;6101219;23;20094;-76
2023/12/04 01:52:31;;;;;;;17.27;9.25;;;;;;;0.43;100.00;101225.31;6075698;23;20019;-76
2023/12/04 01:54:58;;;;;;;16.13;8.52;;;;;;;0.43;100.00;101221.94;6101159;23;20025;-76
2023/12/04 01:57:25;;;;;;;24.25;10.43;;;;;;;0.44;100.00;101220.84;6100825;23;20025;-76
2023/12/04 01:59:51;;;;;;;17.42;9.75;;;;;;;0.41;100.00;101213.69;6101214;23;20019;-76
2023/12/04 02:02:20;;;;;;;14.80;8.85;;;;;;;0.41;100.00;101213.69;6101095;23;20047;-75
2023/12/04 02:04:46;;;;;;;18.98;9.52;;;;;;;0.39;100.00;101206.22;6101396;23;20026;-74
2023/12/04 02:07:13;;;;;;;15.85;9.00;;;;;;;0.38;100.00;101198.72;6101149;23;20022;-74
2023/12/04 02:09:40;;;;;;;14.48;8.05;;;;;;;0.39;100.00;101200.22;6100777;23;20026;-74
2023/12/04 02:12:06;;;;;;;20.40;9.00;;;;;;;0.39;100.00;101200.22;6101194;23;20057;-74
2023/12/04 02:14:33;;;;;;;16.05;9.82;;;;;;;0.40;100.00;101197.22;6100619;23;20019;-74
2023/12/04 02:17:02;;;;;;;18.73;9.75;;;;;;;0.40;100.00;101194.59;6101193;23;20022;-74
2023/12/04 02:19:29;;;;;;;22.77;9.77;;;;;;;0.41;100.00;101188.25;6100609;23;20011;-74
2023/12/04 02:21:55;;;;;;;19.63;9.25;;;;;;;0.42;100.00;101184.53;6101008;23;20023;-74
2023/12/04 02:24:22;;;;;;;19.20;10.13;;;;;;;0.44;100.00;101187.53;6075332;23;20019;-74
2023/12/04 02:26:57;;;;;;;19.33;9.80;;;;;;;0.43;100.00;101190.50;6101149;23;20353;-74
2023/12/04 02:29:31;;;;;;;18.27;8.85;;;;;;;0.44;100.00;101184.91;6100410;23;20042;-74
2023/12/04 02:32:02;;;;;;;17.33;9.32;;;;;;;0.45;100.00;101185.66;6075029;23;20035;-74
2023/12/04 02:34:32;;;;;;;21.65;9.85;;;;;;;0.45;100.00;101178.56;6100675;23;20078;-74
2023/12/04 02:36:59;;;;;;;19.17;9.80;;;;;;;0.46;100.00;101184.56;6100898;23;20019;-74
2023/12/04 02:39:26;;;;;;;18.27;9.52;;;;;;;0.48;100.00;101172.59;6100547;23;20015;-75
2023/12/04 02:41:53;;;;;;;18.80;10.05;;;;;;;0.50;100.00;101164.38;6100749;23;20666;-75
2023/12/04 02:44:19;;;;;;;24.55;10.63;;;;;;;0.53;100.00;101166.28;6100407;23;20038;-75
2023/12/04 02:46:46;;;;;;;16.92;9.93;;;;;;;0.51;100.00;101156.19;6075342;23;20019;-76
2023/12/04 02:49:13;;;;;;;21.70;9.73;;;;;;;0.51;100.00;101152.81;6102005;23;20021;-76
2023/12/04 02:51:43;;;;;;;18.88;9.13;;;;;;;0.53;100.00;101137.47;6101984;23;20097;-76
2023/12/04 02:54:09;;;;;;;15.68;8.25;;;;;;;0.55;100.00;101145.72;6076569;23;20029;-76
2023/12/04 02:56:36;;;;;;;16.75;8.20;;;;;;;0.57;100.00;101135.66;6101653;23;20019;-76
2023/12/04 02:59:02;;;;;;;17.85;9.15;;;;;;;0.56;100.00;101134.13;6076693;23;20043;-76
2023/12/04 03:01:29;;;;;;;16.58;8.80;;;;;;;0.56;100.00;101136.75;6101420;23;20487;-76
2023/12/04 03:03:55;;;;;;;16.50;9.88;;;;;;;0.55;100.00;101128.16;6102330;23;20369;-76
2023/12/04 03:06:22;;;;;;;17.88;9.27;;;;;;;0.55;100.00;101124.78;6101318;23;20018;-76
2023/12/04 03:08:48;;;;;;;18.23;9.10;;;;;;;0.56;100.00;101126.28;6102127;23;20563;-76
2023/12/04 03:11:15;;;;;;;16.75;9.57;;;;;;;0.57;100.00;101122.53;6101706;23;20030;-76
2023/12/04 03:13:42;;;;;;;20.58;9.50;;;;;;;0.58;100.00;101110.94;6101672;23;20025;-75
2023/12/04 03:16:18;;;;;;;18.08;9.80;;;;;;;0.61;100.00;101121.47;6102362;23;20019;-76
2023/12/04 03:18:45;;;;;;;17.20;9.00;;;;;;;0.60;100.00;101109.47;6102141;23;20015;-76
2023/12/04 03:21:12;;;;;;;15.85;9.10;;;;;;;0.58;100.00;101105.72;6101895;23;20027;-76
2023/12/04 03:23:38;;;;;;;18.80;10.43;;;;;;;0.57;100.00;101106.81;6102364;23;20067;-76
2023/12/04 03:26:05;;;;;;;16.17;9.27;;;;;;;0.59;100.00;101104.59;6102725;23;20464;-76
2023/12/04 03:28:32;;;;;;;20.80;9.98;;;;;;;0.58;100.00;101098.59;6101083;23;20071;-75
2023/12/04 03:30:58;;;;;;;19.40;10.02;;;;;;;0.57;100.00;101094.47;6102123;23;20043;-75
2023/12/04 03:33:25;;;;;;;18.00;9.18;;;;;;;0.57;100.00;101089.25;6101108;23;20071;-75
2023/12/04 03:35:52;;;;;;;17.08;9.43;;;;;;;0.58;100.00;101093.38;6102117;23;20455;-75
2023/12/04 03:38:18;;;;;;;17.40;9.60;;;;;;;0.58;100.00;101082.88;6101501;23;20026;-76
2023/12/04 03:40:45;;;;;;;16.23;9.35;;;;;;;0.56;100.00;101082.50;6101425;23;20025;-75
2023/12/04 03:43:11;;;;;;;18.67;9.48;;;;;;;0.57;100.00;101081.38;6075913;23;20089;-75
2023/12/04 03:45:38;;;;;;;17.95;9.27;;;;;;;0.55;100.00;101075.75;6101745;23;20510;-76
2023/12/04 03:48:04;;;;;;;17.80;8.77;;;;;;;0.54;100.00;101070.88;6102335;23;20019;-75
2023/12/04 03:50:31;;;;;;;17.73;10.18;;;;;;;0.54;100.00;101071.63;6101472;23;20083;-76
2023/12/04 03:52:58;;;;;;;16.83;9.45;;;;;;;0.54;100.00;101073.50;6101865;23;20045;-76
2023/12/04 03:55:25;;;;;;;16.00;9.20;;;;;;;0.52;100.00;101065.22;6101196;23;20045;-76
2023/12/04 03:57:52;;;;;;;15.32;9.35;;;;;;;0.51;100.00;101056.63;6102073;23;20022;-76
2023/12/04 04:00:19;;;;;;;18.73;9.63;;;;;;;0.51;100.00;101051.38;6101256;23;20023;-76
2023/12/04 04:02:46;;;;;;;19.67;8.88;;;;;;;0.49;100.00;101043.13;6101589;23;20023;-76
2023/12/04 04:05:13;;;;;;;17.10;7.93;;;;;;;0.48;100.00;101048.72;6052728;23;20023;-76
2023/12/04 04:07:40;;;;;;;15.95;9.40;;;;;;;0.47;100.00;101055.84;6102175;23;20097;-76
2023/12/04 04:10:07;;;;;;;19.17;9.70;;;;;;;0.45;100.00;101036.38;6102419;23;20026;-76
2023/12/04 04:12:34;;;;;;;16.75;8.77;;;;;;;0.44;100.00;101034.84;6101257;23;20019;-76
2023/12/04 04:15:01;;;;;;;11.95;8.05;;;;;;;0.45;100.00;101038.97;6102005;23;20409;-76
2023/12/04 04:17:27;;;;;;;14.85;8.13;;;;;;;0.46;100.00;101035.25;6075249;23;20019;-76
2023/12/04 04:19:54;;;;;;;15.73;8.90;;;;;;;0.47;100.00;101028.91;6101992;23;20055;-76
2023/12/04 04:22:21;;;;;;;13.23;8.43;;;;;;;0.48;100.00;101030.41;6101468;23;20043;-76
2023/12/04 04:24:49;;;;;;;14.27;7.82;;;;;;;0.47;100.00;101021.78;6102030;23;20093;-76
2023/12/04 04:27:15;;;;;;;13.05;8.23;;;;;;;0.45;100.00;101020.66;6101150;23;20445;-76
2023/12/04 04:29:42;;;;;;;13.70;7.47;;;;;;;0.50;100.00;101020.31;6101537;23;20079;-76
2023/12/04 04:32:09;;;;;;;13.23;8.40;;;;;;;0.49;100.00;101018.81;6101983;23;20022;-76
2023/12/04 04:34:37;;;;;;;13.80;8.32;;;;;;;0.48;100.00;101017.31;6101828;23;20456;-76
2023/12/04 04:37:04;;;;;;;15.13;8.32;;;;;;;0.48;100.00;101009.44;6101787;23;20106;-75
2023/12/04 04:39:30;;;;;;;11.43;7.78;;;;;;;0.49;100.00;101009.09;6100956;23;20019;-76
2023/12/04 04:41:57;;;;;;;14.05;7.82;;;;;;;0.50;100.00;101007.22;6075740;23;20524;-76
2023/12/04 04:44:24;;;;;;;14.43;7.95;;;;;;;0.51;100.00;101013.97;6101017;23;20082;-76
2023/12/04 04:46:53;;;;;;;12.98;7.97;;;;;;;0.53;100.00;101012.47;6101115;23;20014;-76
2023/12/04 04:49:19;;;;;;;16.40;8.07;;;;;;;0.52;100.00;101010.97;6100936;23;20019;-76
2023/12/04 04:51:46;;;;;;;10.00;6.82;;;;;;;0.53;100.00;101006.50;6101919;23;20015;-76
2023/12/04 04:54:13;;;;;;;15.05;8.35;;;;;;;0.53;100.00;101006.50;6101246;23;20011;-76
2023/12/04 04:56:39;;;;;;;14.23;7.78;;;;;;;0.52;100.00;101000.50;6075475;23;20018;-76
2023/12/04 04:59:06;;;;;;;11.52;7.93;;;;;;;0.52;100.00;101005.72;6101831;23;20050;-76
2023/12/04 05:01:32;;;;;;;15.45;7.90;;;;;;;0.53;100.00;100998.63;6100926;23;20019;-76
2023/12/04 05:03:59;;;;;;;13.70;7.13;;;;;;;0.51;100.00;101001.59;6076004;23;20095;-76
2023/12/04 05:06:26;;;;;;;13.90;7.60;;;;;;;0.53;100.00;100996.75;6100643;23;20102;-76
2023/12/04 05:08:53;;;;;;;10.50;6.70;;;;;;;0.56;100.00;101000.53;6076440;23;20055;-76
2023/12/04 05:11:20;;;;;;;13.13;7.68;;;;;;;0.55;100.00;100997.16;6101030;23;20018;-76
2023/12/04 05:13:46;;;;;;;13.07;7.88;;;;;;;0.57;100.00;100997.53;6075856;23;20023;-76
2023/12/04 05:16:13;;;;;;;13.20;8.10;;;;;;;0.57;100.00;100991.53;6101277;23;20025;-77
2023/12/04 05:18:40;;;;;;;13.80;8.73;;;;;;;0.56;100.00;100996.03;6101550;23;20018;-77
2023/12/04 05:21:10;;;;;;;12.95;7.20;;;;;;;0.55;100.00;100983.31;6101496;23;20070;-76
2023/12/04 05:23:37;;;;;;;10.27;7.43;;;;;;;0.54;100.00;100984.41;6101473;23;20015;-77
2023/12/04 05:26:05;;;;;;;11.07;7.13;;;;;;;0.54;100.00;100982.56;6101307;23;20018;-77
2023/12/04 05:28:32;;;;;;;10.48;7.30;;;;;;;0.52;100.00;100976.91;6100728;23;20019;-76
2023/12/04 05:30:59;;;;;;;11.95;7.95;;;;;;;0.53;100.00;100978.44;6101376;23;20023;-76
2023/12/04 05:33:26;;;;;;;11.65;8.05;;;;;;;0.54;100.00;100979.19;6100791;23;20043;-77
2023/12/04 05:35:53;;;;;;;10.02;6.32;;;;;;;0.53;100.00;100967.19;6101778;23;20030;-77
2023/12/04 05:38:19;;;;;;;12.00;8.35;;;;;;;0.51;100.00;100967.56;6051136;23;20037;-77
2023/12/04 05:40:46;;;;;;;11.80;7.50;;;;;;;0.50;100.00;100954.81;6100895;23;20045;-77
2023/12/04 05:43:12;;;;;;;10.00;7.38;;;;;;;0.51;100.00;100948.47;6101470;23;20051;-77
2023/12/04 05:45:40;;;;;;;13.02;7.95;;;;;;;0.51;100.00;100940.59;6101346;23;20026;-77
2023/12/04 05:48:06;;;;;;;12.63;8.27;;;;;;;0.51;100.00;100945.84;6101682;23;20026;-77
2023/12/04 05:50:33;;;;;;;14.23;7.85;;;;;;;0.52;100.00;100939.50;6100935;23;20015;-77
2023/12/04 05:53:00;;;;;;;14.50;7.97;;;;;;;0.49;100.00;100940.97;6101400;23;20528;-77
2023/12/04 05:55:26;;;;;;;12.98;7.50;;;;;;;0.49;100.00;100940.22;6101505;23;20444;-77
2023/12/04 05:57:53;;;;;;;11.88;8.10;;;;;;;0.50;100.00;100941.72;6102901;23;20023;-77
2023/12/04 06:00:21;;;;;;;12.55;7.53;;;;;;;0.50;100.00;100941.72;6101794;23;20393;-77
2023/12/04 06:02:52;;;;;;;11.70;7.72;;;;;;;0.50;100.00;100939.84;6102504;23;20461;-76
2023/12/04 06:05:18;;;;;;;9.43;6.38;;;;;;;0.48;100.00;100939.47;6101233;23;20066;-77
2023/12/04 06:07:45;;;;;;;12.70;7.32;;;;;;;0.50;100.00;100931.25;6100632;23;20023;-77
2023/12/04 06:10:12;;;;;;;11.65;7.38;;;;;;;0.52;100.00;100935.00;6100926;23;20046;-77
2023/12/04 06:12:38;;;;;;;13.55;7.57;;;;;;;0.51;100.00;100932.75;6101027;23;20074;-77
2023/12/04 06:15:06;;;;;;;11.10;7.60;;;;;;;0.50;100.00;100931.25;6101535;23;20023;-77
2023/12/04 06:17:32;;;;;;;11.70;7.38;;;;;;;0.48;100.00;100921.13;6100793;23;20062;-77
2023/12/04 06:19:59;;;;;;;20.13;7.90;;;;;;;0.50;100.00;100929.38;6101330;23;20439;-77
2023/12/04 06:22:26;;;;;;;13.45;7.60;;;;;;;0.50;100.00;100924.13;6101661;23;20026;-77
2023/12/04 06:24:53;;;;;;;11.57;7.22;;;;;;;0.51;100.00;100938.00;6104158;23;20019;-77
2023/12/04 06:27:20;;;;;;;10.45;6.38;;;;;;;0.51;100.00;100927.50;6104168;23;20088;-77
2023/12/04 06:29:48;;;;;;;9.00;6.43;;;;;;;0.52;100.00;100929.00;6104840;23;20022;-77
2023/12/04 06:32:19;;;;;;;14.13;6.88;;;;;;;0.50;100.00;100920.78;6103861;23;20112;-77
2023/12/04 06:34:46;;;;;;;11.13;7.43;;;;;;;0.49;100.00;100914.78;6104045;23;20026;-77
2023/12/04 06:37:15;;;;;;;14.63;7.90;;;;;;;0.48;100.00;100917.75;6103678;23;20023;-77
2023/12/04 06:39:44;;;;;;;12.30;7.32;;;;;;;0.49;100.00;100909.53;6103837;23;20025;-77
2023/12/04 06:42:11;;;;;;;10.85;6.43;;;;;;;0.48;100.00;100902.03;6104097;23;20049;-77
2023/12/04 06:44:38;;;;;;;10.40;7.05;;;;;;;0.49;100.00;100906.16;6103631;23;20019;-77
2023/12/04 06:47:07;;;;;;;8.52;6.50;;;;;;;0.46;100.00;100899.03;6104539;23;20031;-77
2023/12/04 06:49:34;;;;;;;10.38;6.93;;;;;;;0.48;100.00;100886.31;6103747;23;20015;-77
2023/12/04 06:52:01;;;;;;;11.77;6.57;;;;;;;0.45;100.00;100892.28;6104337;23;20018;-77
2023/12/04 06:54:28;;;;;;;14.02;7.25;;;;;;;0.46;100.00;100886.69;6104248;23;20094;-79
2023/12/04 06:56:54;;;;;;;10.85;6.35;;;;;;;0.48;99.72;100887.06;6081112;23;20023;-78
2023/12/04 06:59:21;;;;;;;9.30;6.88;;;;;;;0.46;99.48;100870.97;6106003;23;20047;-78
2023/12/04 07:01:47;;;;;;;9.63;7.20;;;;;;;0.49;99.64;100879.97;6108230;23;20019;-78
2023/12/04 07:04:20;;;;;;;11.55;7.22;;;;;;;0.49;99.56;100874.72;6111412;23;20019;-78
2023/12/04 07:06:50;;;;;;;9.30;6.63;;;;;;;0.49;99.41;100877.34;6108450;23;20026;-78
2023/12/04 07:09:17;;;;;;;12.05;7.10;;;;;;;0.48;99.19;100881.84;6112257;23;20015;-79
2023/12/04 07:11:44;;;;;;;10.23;7.30;;;;;;;0.48;99.12;100866.13;6082497;23;20030;-78
2023/12/04 07:14:11;;;;;;;11.73;7.35;;;;;;;0.48;98.96;100860.88;6108230;23;20026;-78
2023/12/04 07:16:44;;;;;;;10.18;6.78;;;;;;;0.50;98.91;100861.28;6081975;23;20086;-78
2023/12/04 07:19:10;;;;;;;10.98;7.10;;;;;;;0.50;98.76;100865.75;6104480;23;20108;-77
2023/12/04 07:21:38;;;;;;;11.13;6.65;;;;;;;0.49;98.45;100854.53;6103378;23;20018;-78
2023/12/04 07:24:05;;;;;;;9.93;6.50;;;;;;;0.50;98.41;100850.03;6105106;23;20019;-77
2023/12/04 07:26:33;;;;;;;9.60;7.40;;;;;;;0.50;98.09;100850.78;6105600;23;20023;-77
2023/12/04 07:29:00;;;;;;;10.70;6.18;;;;;;;0.51;97.95;100851.53;6104384;23;20014;-77
2023/12/04 07:31:27;;;;;;;15.70;7.38;;;;;;;0.51;97.62;100854.91;6104664;23;20019;-78
2023/12/04 07:33:54;;;;;;;14.18;6.38;;;;;;;0.52;97.53;100850.44;6105110;23;20021;-78
2023/12/04 07:36:21;;;;;;;12.43;7.05;;;;;;;0.54;97.28;100856.06;6103215;23;20023;-78
2023/12/04 07:38:49;;;;;;;8.63;6.00;;;;;;;0.54;97.44;100845.56;6102556;23;20015;-77
2023/12/04 07:41:17;;;;;;;9.43;6.50;;;;;;;0.54;97.08;100848.19;6101438;23;20457;-77
2023/12/04 07:43:43;;;;;;;9.27;6.22;;;;;;;0.52;97.07;100851.19;6101881;23;20021;-76
2023/12/04 07:46:11;;;;;;;7.90;6.07;;;;;;;0.53;96.68;100849.31;6101945;23;20782;-76
2023/12/04 07:48:37;;;;;;;11.27;6.75;;;;;;;0.56;96.79;100849.31;6101907;23;20377;-76
2023/12/04 07:51:04;;;;;;;10.25;6.63;;;;;;;0.56;96.60;100844.09;6103514;23;20019;-78
2023/12/04 07:53:31;;;;;;;10.80;6.88;;;;;;;0.57;96.54;100842.22;6102190;23;20054;-77
2023/12/04 07:56:03;;;;;;;9.35;6.82;;;;;;;0.59;96.57;100842.59;6102225;23;20030;-77
2023/12/04 07:58:31;;;;;;;8.02;5.72;;;;;;;0.60;96.11;100836.25;6077153;23;20065;-77
2023/12/04 08:00:59;;;;;;;9.40;6.20;;;;;;;0.61;96.09;100840.38;6077507;23;20472;-77
2023/12/04 08:03:26;;;;;;;10.93;6.35;;;;;;;0.62;95.79;100839.25;6101713;23;20456;-77
2023/12/04 08:05:53;;;;;;;12.57;6.63;;;;;;;0.61;95.97;100841.13;6105050;23;20019;-79
2023/12/04 08:08:20;;;;;;;12.63;6.60;;;;;;;0.64;95.78;100840.38;6109951;23;20011;-79
2023/12/04 08:10:48;;;;;;;10.30;6.30;;;;;;;0.64;95.72;100842.25;6109117;23;20369;-78
2023/12/04 08:13:15;;;;;;;8.82;6.47;;;;;;;0.65;95.65;100849.75;6103791;23;20019;-78
2023/12/04 08:15:42;;;;;;;9.18;6.43;;;;;;;0.63;95.32;100838.88;6104221;23;20892;-78
2023/12/04 08:18:09;;;;;;;8.10;6.00;;;;;;;0.65;94.76;100854.97;6103016;23;20393;-77
2023/12/04 08:20:35;;;;;;;11.48;5.78;;;;;;;0.66;94.63;100853.88;6102852;23;20019;-78
2023/12/04 08:23:07;;;;;;;8.25;5.32;;;;;;;0.65;94.65;100851.63;6103556;23;20483;-77
2023/12/04 08:25:36;;;;;;;8.10;5.78;;;;;;;0.65;94.47;100854.22;6104007;23;20177;-78
2023/12/04 08:28:03;;;;;;;8.80;5.63;;;;;;;0.65;93.98;100844.50;6104562;23;20019;-78
2023/12/04 08:30:29;;;;;;;7.57;5.57;;;;;;;0.68;93.83;100847.50;6104209;23;20119;-78
2023/12/04 08:32:56;;;;;;;8.77;5.95;;;;;;;0.70;93.66;100842.66;6103262;23;20022;-77
2023/12/04 08:35:22;;;;;;;8.50;5.00;;;;;;;0.68;93.42;100832.53;6101669;23;20023;-76
2023/12/04 08:37:49;;;;;;;6.72;5.57;;;;;;;0.70;93.35;100838.16;6102270;23;20014;-77
2023/12/04 08:40:17;;;;;;;7.80;5.85;;;;;;;0.70;93.24;100832.91;6104485;23;20038;-77
2023/12/04 08:42:44;;;;;;;7.05;5.35;;;;;;;0.72;93.28;100825.44;6105449;23;20015;-77
2023/12/04 08:45:12;;;;;;;9.73;5.53;;;;;;;0.75;92.81;100829.19;6076488;23;20504;-76
2023/12/04 08:47:39;;;;;;;10.27;6.32;;;;;;;0.77;92.33;100816.47;6103506;23;20108;-79
2023/12/04 08:50:06;;;;;;;8.52;5.93;;;;;;;0.79;92.27;100819.47;6104964;23;20015;-78
2023/12/04 08:52:33;;;;;;;10.05;6.07;;;;;;;0.81;92.07;100817.22;6106477;23;20023;-76
2023/12/04 08:55:00;;;;;;;13.10;6.00;;;;;;;0.83;91.59;100809.72;6105932;23;20019;-78
2023/12/04 08:57:27;;;;;;;8.50;6.05;;;;;;;0.85;91.09;100802.25;6104676;23;20023;-78
2023/12/04 08:59:54;;;;;;;6.22;5.03;;;;;;;0.89;91.18;100808.25;6106122;23;20019;-78
2023/12/04 09:02:20;;;;;;;7.22;5.75;;;;;;;0.92;91.04;100813.50;6106561;23;20022;-81
2023/12/04 09:04:47;;;;;;;8.70;6.80;;;;;;;0.96;90.90;100806.41;6079242;23;20026;-79
2023/12/04 09:07:14;;;;;;;9.35;6.60;;;;;;;0.99;90.59;100803.03;6079259;23;20086;-78
2023/12/04 09:09:46;;;;;;;8.77;6.18;;;;;;;1.02;90.15;100801.53;6105310;23;20022;-79
2023/12/04 09:12:13;;;;;;;9.85;6.15;;;;;;;1.05;89.84;100797.44;6106236;23;20015;-79
2023/12/04 09:14:40;;;;;;;9.48;5.88;;;;;;;1.04;89.84;100801.16;6103294;23;20029;-78
2023/12/04 09:17:06;;;;;;;6.88;5.28;;;;;;;1.05;89.37;100785.06;6104279;23;20029;-79
2023/12/04 09:19:33;;;;;;;11.18;6.13;;;;;;;1.08;88.99;100789.56;6077513;23;20074;-78
2023/12/04 09:22:00;;;;;;;8.68;6.13;;;;;;;1.14;88.77;100795.19;6103015;23;20022;-78
2023/12/04 09:24:38;;;;;;;8.63;5.40;;;;;;;1.17;88.30;100791.84;6080218;23;20110;-78
2023/12/04 09:27:06;;;;;;;8.93;6.53;;;;;;;1.18;88.05;100791.47;6103646;23;20103;-78
2023/12/04 09:29:33;;;;;;;6.43;5.72;;;;;;;1.20;88.08;100785.84;6103886;23;20050;-76
2023/12/04 09:32:00;;;;;;;8.57;6.10;;;;;;;1.23;87.31;100788.44;6077445;23;20015;-76
2023/12/04 09:34:27;;;;;;;6.65;5.30;;;;;;;1.29;87.33;100794.06;6104292;23;20027;-80
2023/12/04 09:36:54;;;;;;;7.35;5.53;;;;;;;1.32;86.96;100794.06;6081307;23;20022;-78
2023/12/04 09:39:25;;;;;;;9.15;5.72;;;;;;;1.34;87.17;100791.81;6105410;23;20015;-79
2023/12/04 09:41:53;;;;;;;11.30;6.07;;;;;;;1.35;86.49;100792.56;6081376;23;20054;-79
2023/12/04 09:44:22;;;;;;;6.95;5.47;;;;;;;1.38;86.43;100788.47;6113759;23;20023;-81
2023/12/04 09:46:51;;;;;;;8.23;5.82;;;;;;;1.38;86.37;100785.84;6091500;23;20019;-81
2023/12/04 09:49:18;;;;;;;6.72;5.75;;;;;;;1.39;86.11;100788.09;6118193;23;20015;-82
2023/12/04 09:51:46;;;;;;;7.28;5.32;;;;;;;1.40;86.00;100784.34;6115324;23;20030;-79
2023/12/04 09:54:16;;;;;;;6.75;5.22;;;;;;;1.43;85.22;100780.22;6104953;23;20102;-80
2023/12/04 09:56:43;;;;;;;9.48;6.18;;;;;;;1.44;85.09;100785.09;6104386;23;20019;-75
2023/12/04 09:59:13;;;;;;;7.35;5.65;;;;;;;1.45;84.09;100776.09;6104927;23;20019;-79
2023/12/04 10:01:41;;;;;;;10.18;5.55;;;;;;;1.49;84.24;100786.59;6107572;23;20071;-77
2023/12/04 10:04:08;;;;;;;10.90;5.65;;;;;;;1.49;84.22;100781.34;6103164;23;20019;-79
2023/12/04 10:06:37;;;;;;;6.20;5.40;;;;;;;1.50;83.74;100774.97;6106279;23;20051;-78
2023/12/04 10:09:03;;;;;;;9.70;5.90;;;;;;;1.55;83.72;100774.59;6108326;23;20057;-78
2023/12/04 10:11:30;;;;;;;7.45;5.50;;;;;;;1.58;83.87;100766.72;6107483;23;20105;-76
2023/12/04 10:13:57;;;;;;;9.70;6.32;;;;;;;1.60;83.51;100767.06;6101253;23;20102;-76
2023/12/04 10:16:36;;;;;;;9.80;5.70;;;;;;;1.64;82.69;100756.56;6100651;23;20029;-75
2023/12/04 10:19:20;;;;;;;7.53;5.32;;;;;;;1.70;83.04;100751.69;6102525;23;20026;-75
2023/12/04 10:21:48;;;;;;;7.45;5.20;;;;;;;1.71;83.09;100747.94;6101163;23;20467;-76
2023/12/04 10:24:35;;;;;;;8.00;4.97;;;;;;;1.73;82.80;100743.06;6101205;23;20094;-76
2023/12/04 10:27:08;;;;;;;6.70;4.97;;;;;;;1.78;82.43;100745.28;6101168;23;20015;-75
2023/12/04 10:29:43;;;;;;;7.78;5.45;;;;;;;1.82;82.06;100732.91;6100200;23;20071;-75
2023/12/04 10:32:10;;;;;;;5.53;5.00;;;;;;;1.85;82.37;100735.53;6101367;23;20022;-75
2023/12/04 10:34:37;;;;;;;7.72;5.20;;;;;;;1.87;82.12;100733.28;6101934;23;20054;-77
2023/12/04 10:37:05;;;;;;;6.13;4.75;;;;;;;1.89;81.66;100722.41;6102350;23;20110;-78
2023/12/04 10:39:46;;;;;;;6.55;5.30;;;;;;;1.93;81.42;100715.25;6100403;23;20019;-75
2023/12/04 10:42:23;;;;;;;7.82;5.40;;;;;;;1.96;80.98;100719.75;6099122;23;20025;-74
2023/12/04 10:44:50;;;;;;;6.85;5.13;;;;;;;2.00;80.87;100715.22;6100394;23;20149;-74
2023/12/04 10:47:21;;;;;;;6.05;5.10;;;;;;;2.01;81.10;100717.47;6100749;23;20015;-74
2023/12/04 10:49:51;;;;;;;7.95;5.55;;;;;;;2.04;81.16;100704.69;6076360;23;20094;-76
2023/12/04 10:52:21;;;;;;;7.90;6.07;;;;;;;2.06;80.69;100705.81;6104184;23;20021;-76
2023/12/04 10:54:48;;;;;;;7.70;5.40;;;;;;;2.08;80.32;100692.31;6106148;23;20107;-75
2023/12/04 10:57:31;;;;;;;7.60;5.47;;;;;;;2.08;80.92;100698.31;6101049;23;20019;-77
2023/12/04 11:00:02;;;;;;;7.88;6.13;;;;;;;2.07;81.16;100696.06;6100962;23;20435;-77
2023/12/04 11:02:32;;;;;;;;;;;;;;;2.08;83.20;100689.69;6100613;23;20019;-77
2023/12/04 11:05:13;;;;;;;6.45;5.18;;;;;;;2.08;81.62;100679.94;6101027;23;19925;-76
2023/12/04 11:07:44;;;;;;;6.90;5.53;;;;;;;2.11;81.45;100673.91;6100691;23;20019;-77
2023/12/04 11:10:31;;;;;;;9.32;5.50;;;;;;;2.11;81.35;100663.41;6102420;23;20585;-76
2023/12/04 11:13:07;;;;;;;9.65;6.28;;;;;;;2.17;81.27;100663.75;6102189;23;20917;-74
2023/12/04 11:15:43;;;;;;;7.70;5.32;;;;;;;2.15;81.00;100658.88;6102049;23;20057;-76
2023/12/04 11:18:13;;;;;;;8.82;5.72;;;;;;;2.18;81.07;100649.50;6102200;23;20023;-75
2023/12/04 11:20:47;;;;;;;8.45;6.13;;;;;;;2.20;80.39;100645.34;6101774;23;20077;-75
2023/12/04 11:23:16;;;;;;;9.85;6.65;;;;;;;2.24;80.57;100637.47;6075865;23;20030;-75
2023/12/04 11:25:45;;;;;;;8.70;6.22;;;;;;;2.24;80.38;100638.19;6102007;23;20022;-75